sensor_id;sensor_type;location;lat;lon;timestamp;temperature;humidity
65687;HTU21D;52406;45.078;38.986;2022-11-15T00:45:10;4.39;74.70
65687;HTU21D;52406;45.078;38.986;2022-11-15T01:18:58;4.30;74.67
65687;HTU21D;52406;45.078;38.986;2022-11-15T02:42:02;3.95;75.05
65687;HTU21D;52406;45.078;38.986;2022-11-15T03:05:41;3.76;75.22
65687;HTU21D;52406;45.078;38.986;2022-11-15T03:10:06;3.74;75.05
65687;HTU21D;52406;45.078;38.986;2022-11-15T05:59:29;6.90;73.08
65687;HTU21D;52406;45.078;38.986;2022-11-15T06:02:15;7.09;72.50
65687;HTU21D;52406;45.078;38.986;2022-11-15T06:04:59;7.23;72.10
65687;HTU21D;52406;45.078;38.986;2022-11-15T06:07:43;7.30;71.93
65687;HTU21D;52406;45.078;38.986;2022-11-15T06:10:32;7.44;71.74
65687;HTU21D;52406;45.078;38.986;2022-11-15T06:13:17;7.68;71.48
65687;HTU21D;52406;45.078;38.986;2022-11-15T06:16:01;7.85;71.32
65687;HTU21D;52406;45.078;38.986;2022-11-15T06:18:46;8.06;71.01
65687;HTU21D;52406;45.078;38.986;2022-11-15T06:21:31;8.23;70.71
65687;HTU21D;52406;45.078;38.986;2022-11-15T06:24:15;8.41;70.36
65687;HTU21D;52406;45.078;38.986;2022-11-15T06:26:59;8.50;70.06
65687;HTU21D;52406;45.078;38.986;2022-11-15T06:29:44;8.49;70.14
65687;HTU21D;52406;45.078;38.986;2022-11-15T06:32:29;8.52;70.10
65687;HTU21D;52406;45.078;38.986;2022-11-15T06:35:15;8.45;69.92
65687;HTU21D;52406;45.078;38.986;2022-11-15T06:38:08;8.43;69.70
65687;HTU21D;52406;45.078;38.986;2022-11-15T06:40:52;8.22;69.84
65687;HTU21D;52406;45.078;38.986;2022-11-15T06:43:40;8.11;69.91
65687;HTU21D;52406;45.078;38.986;2022-11-15T06:46:25;8.11;70.03
65687;HTU21D;52406;45.078;38.986;2022-11-15T06:49:09;8.14;70.10
65687;HTU21D;52406;45.078;38.986;2022-11-15T06:51:53;8.43;69.84
65687;HTU21D;52406;45.078;38.986;2022-11-15T06:54:37;8.64;69.55
65687;HTU21D;52406;45.078;38.986;2022-11-15T06:57:22;8.75;69.28
65687;HTU21D;52406;45.078;38.986;2022-11-15T07:00:07;8.76;69.39
65687;HTU21D;52406;45.078;38.986;2022-11-15T07:02:51;8.71;69.32
65687;HTU21D;52406;45.078;38.986;2022-11-15T07:05:36;8.85;68.98
65687;HTU21D;52406;45.078;38.986;2022-11-15T07:08:21;8.72;69.06
65687;HTU21D;52406;45.078;38.986;2022-11-15T07:11:07;8.80;69.20
65687;HTU21D;52406;45.078;38.986;2022-11-15T07:13:52;9.22;68.65
65687;HTU21D;52406;45.078;38.986;2022-11-15T07:16:37;9.51;68.29
65687;HTU21D;52406;45.078;38.986;2022-11-15T07:19:21;9.65;67.83
65687;HTU21D;52406;45.078;38.986;2022-11-15T07:22:06;9.83;67.65
65687;HTU21D;52406;45.078;38.986;2022-11-15T07:24:50;9.94;67.70
65687;HTU21D;52406;45.078;38.986;2022-11-15T07:27:35;10.07;67.37
65687;HTU21D;52406;45.078;38.986;2022-11-15T07:30:19;10.41;67.32
65687;HTU21D;52406;45.078;38.986;2022-11-15T07:33:03;10.79;67.01
65687;HTU21D;52406;45.078;38.986;2022-11-15T07:35:48;11.19;66.54
65687;HTU21D;52406;45.078;38.986;2022-11-15T07:38:34;11.52;66.33
65687;HTU21D;52406;45.078;38.986;2022-11-15T07:41:19;11.61;66.19
65687;HTU21D;52406;45.078;38.986;2022-11-15T07:44:03;11.94;66.05
65687;HTU21D;52406;45.078;38.986;2022-11-15T07:46:48;12.36;65.69
65687;HTU21D;52406;45.078;38.986;2022-11-15T07:49:32;12.59;65.41
65687;HTU21D;52406;45.078;38.986;2022-11-15T07:52:16;12.73;65.42
65687;HTU21D;52406;45.078;38.986;2022-11-15T07:55:01;12.93;65.45
65687;HTU21D;52406;45.078;38.986;2022-11-15T07:57:45;13.24;65.31
65687;HTU21D;52406;45.078;38.986;2022-11-15T08:00:30;13.51;64.84
65687;HTU21D;52406;45.078;38.986;2022-11-15T08:03:16;13.76;64.59
65687;HTU21D;52406;45.078;38.986;2022-11-15T08:06:01;13.89;64.59
65687;HTU21D;52406;45.078;38.986;2022-11-15T08:08:46;14.01;64.66
65687;HTU21D;52406;45.078;38.986;2022-11-15T08:11:31;13.94;64.89
65687;HTU21D;52406;45.078;38.986;2022-11-15T08:14:15;13.93;65.01
65687;HTU21D;52406;45.078;38.986;2022-11-15T08:17:00;13.97;65.12
65687;HTU21D;52406;45.078;38.986;2022-11-15T08:19:44;13.99;64.88
65687;HTU21D;52406;45.078;38.986;2022-11-15T08:22:29;14.10;65.04
65687;HTU21D;52406;45.078;38.986;2022-11-15T08:25:13;14.19;64.76
65687;HTU21D;52406;45.078;38.986;2022-11-15T08:28:03;14.30;64.81
65687;HTU21D;52406;45.078;38.986;2022-11-15T08:30:48;14.43;64.47
65687;HTU21D;52406;45.078;38.986;2022-11-15T08:33:33;14.47;64.48
65687;HTU21D;52406;45.078;38.986;2022-11-15T08:36:18;14.45;64.65
65687;HTU21D;52406;45.078;38.986;2022-11-15T08:39:02;14.44;64.68
65687;HTU21D;52406;45.078;38.986;2022-11-15T08:41:46;14.55;64.63
65687;HTU21D;52406;45.078;38.986;2022-11-15T08:44:30;14.74;64.42
65687;HTU21D;52406;45.078;38.986;2022-11-15T08:47:14;14.69;64.50
65687;HTU21D;52406;45.078;38.986;2022-11-15T08:49:59;14.75;64.68
65687;HTU21D;52406;45.078;38.986;2022-11-15T08:52:43;14.87;64.53
65687;HTU21D;52406;45.078;38.986;2022-11-15T08:55:27;14.66;64.88
65687;HTU21D;52406;45.078;38.986;2022-11-15T08:58:12;14.66;64.94
65687;HTU21D;52406;45.078;38.986;2022-11-15T09:00:56;14.78;64.80
65687;HTU21D;52406;45.078;38.986;2022-11-15T09:03:41;14.94;64.47
65687;HTU21D;52406;45.078;38.986;2022-11-15T09:06:25;14.83;64.56
65687;HTU21D;52406;45.078;38.986;2022-11-15T09:09:09;14.83;64.66
65687;HTU21D;52406;45.078;38.986;2022-11-15T09:11:53;14.88;64.66
65687;HTU21D;52406;45.078;38.986;2022-11-15T09:14:38;14.97;64.55
65687;HTU21D;52406;45.078;38.986;2022-11-15T09:17:22;14.97;64.60
65687;HTU21D;52406;45.078;38.986;2022-11-15T09:20:07;14.97;64.57
65687;HTU21D;52406;45.078;38.986;2022-11-15T09:22:52;15.04;64.54
65687;HTU21D;52406;45.078;38.986;2022-11-15T09:25:36;15.16;64.43
65687;HTU21D;52406;45.078;38.986;2022-11-15T09:28:20;15.19;64.19
65687;HTU21D;52406;45.078;38.986;2022-11-15T09:31:05;15.07;64.42
65687;HTU21D;52406;45.078;38.986;2022-11-15T09:33:50;15.09;64.50
65687;HTU21D;52406;45.078;38.986;2022-11-15T09:36:34;15.16;64.33
65687;HTU21D;52406;45.078;38.986;2022-11-15T09:39:19;15.17;64.37
65687;HTU21D;52406;45.078;38.986;2022-11-15T09:45:22;15.24;64.39
65687;HTU21D;52406;45.078;38.986;2022-11-15T09:50:56;15.38;64.19
65687;HTU21D;52406;45.078;38.986;2022-11-15T09:55:59;15.31;64.28
65687;HTU21D;52406;45.078;38.986;2022-11-15T09:58:57;15.31;64.36
65687;HTU21D;52406;45.078;38.986;2022-11-15T10:04:21;15.57;63.76
65687;HTU21D;52406;45.078;38.986;2022-11-15T10:09:48;15.47;63.98
65687;HTU21D;52406;45.078;38.986;2022-11-15T10:12:17;15.47;64.01
65687;HTU21D;52406;45.078;38.986;2022-11-15T10:14:43;15.46;63.98
65687;HTU21D;52406;45.078;38.986;2022-11-15T10:17:29;15.43;64.01
65687;HTU21D;52406;45.078;38.986;2022-11-15T10:22:40;15.51;64.02
65687;HTU21D;52406;45.078;38.986;2022-11-15T10:25:17;15.48;64.10
65687;HTU21D;52406;45.078;38.986;2022-11-15T10:27:55;15.59;63.95
65687;HTU21D;52406;45.078;38.986;2022-11-15T10:30:22;15.66;63.82
65687;HTU21D;52406;45.078;38.986;2022-11-15T10:32:48;15.74;63.71
65687;HTU21D;52406;45.078;38.986;2022-11-15T10:35:35;15.72;63.70
65687;HTU21D;52406;45.078;38.986;2022-11-15T10:38:09;15.61;63.83
65687;HTU21D;52406;45.078;38.986;2022-11-15T10:40:37;15.60;63.92
65687;HTU21D;52406;45.078;38.986;2022-11-15T10:45:37;15.78;63.84
65687;HTU21D;52406;45.078;38.986;2022-11-15T10:50:41;16.06;63.78
65687;HTU21D;52406;45.078;38.986;2022-11-15T10:55:50;16.46;63.27
65687;HTU21D;52406;45.078;38.986;2022-11-15T10:58:30;16.54;63.22
65687;HTU21D;52406;45.078;38.986;2022-11-15T11:01:24;16.67;63.07
65687;HTU21D;52406;45.078;38.986;2022-11-15T11:04:11;16.86;63.02
65687;HTU21D;52406;45.078;38.986;2022-11-15T11:07:08;17.00;62.92
65687;HTU21D;52406;45.078;38.986;2022-11-15T11:09:45;17.07;62.83
65687;HTU21D;52406;45.078;38.986;2022-11-15T11:12:27;17.13;62.96
65687;HTU21D;52406;45.078;38.986;2022-11-15T11:14:54;17.19;62.95
65687;HTU21D;52406;45.078;38.986;2022-11-15T11:20:33;17.22;63.08
65687;HTU21D;52406;45.078;38.986;2022-11-15T11:32:02;15.96;64.18
65687;HTU21D;52406;45.078;38.986;2022-11-15T11:40:37;15.37;64.66
65687;HTU21D;52406;45.078;38.986;2022-11-15T11:43:11;15.18;64.66
65687;HTU21D;52406;45.078;38.986;2022-11-15T11:45:47;14.98;64.79
65687;HTU21D;52406;45.078;38.986;2022-11-15T11:51:05;14.74;64.79
65687;HTU21D;52406;45.078;38.986;2022-11-15T11:53:46;14.66;64.72
65687;HTU21D;52406;45.078;38.986;2022-11-15T11:56:23;14.56;64.82
65687;HTU21D;52406;45.078;38.986;2022-11-15T11:58:50;14.53;64.87
65687;HTU21D;52406;45.078;38.986;2022-11-15T12:01:29;14.45;64.82
65687;HTU21D;52406;45.078;38.986;2022-11-15T12:06:51;13.99;65.18
65687;HTU21D;52406;45.078;38.986;2022-11-15T12:12:58;13.81;65.43
65687;HTU21D;52406;45.078;38.986;2022-11-15T12:15:30;13.70;65.50
65687;HTU21D;52406;45.078;38.986;2022-11-15T12:17:59;13.56;65.76
65687;HTU21D;52406;45.078;38.986;2022-11-15T12:20:30;13.56;65.75
65687;HTU21D;52406;45.078;38.986;2022-11-15T12:25:46;13.34;65.90
65687;HTU21D;52406;45.078;38.986;2022-11-15T12:30:59;12.99;66.13
65687;HTU21D;52406;45.078;38.986;2022-11-15T12:36:34;12.73;66.36
65687;HTU21D;52406;45.078;38.986;2022-11-15T12:39:13;12.66;66.40
65687;HTU21D;52406;45.078;38.986;2022-11-15T12:41:42;12.58;66.46
65687;HTU21D;52406;45.078;38.986;2022-11-15T12:47:24;12.34;66.65
65687;HTU21D;52406;45.078;38.986;2022-11-15T12:49:51;12.20;66.72
65687;HTU21D;52406;45.078;38.986;2022-11-15T12:52:18;12.08;66.87
65687;HTU21D;52406;45.078;38.986;2022-11-15T12:54:53;12.03;66.97
65687;HTU21D;52406;45.078;38.986;2022-11-15T12:59:55;11.93;67.09
65687;HTU21D;52406;45.078;38.986;2022-11-15T13:02:30;11.74;67.21
65687;HTU21D;52406;45.078;38.986;2022-11-15T13:17:49;10.90;68.03
65687;HTU21D;52406;45.078;38.986;2022-11-15T13:23:08;10.75;68.20
65687;HTU21D;52406;45.078;38.986;2022-11-15T13:30:55;10.43;68.46
65687;HTU21D;52406;45.078;38.986;2022-11-15T13:33:33;10.43;68.41
65687;HTU21D;52406;45.078;38.986;2022-11-15T13:36:18;10.36;68.35
65687;HTU21D;52406;45.078;38.986;2022-11-15T13:38:45;10.24;68.49
65687;HTU21D;52406;45.078;38.986;2022-11-15T13:41:21;10.13;68.59
65687;HTU21D;52406;45.078;38.986;2022-11-15T13:43:50;9.99;68.58
65687;HTU21D;52406;45.078;38.986;2022-11-15T13:51:36;9.66;69.00
65687;HTU21D;52406;45.078;38.986;2022-11-15T13:54:13;9.61;68.95
65687;HTU21D;52406;45.078;38.986;2022-11-15T13:56:51;9.59;68.92
65687;HTU21D;52406;45.078;38.986;2022-11-15T13:59:33;9.50;68.85
65687;HTU21D;52406;45.078;38.986;2022-11-15T14:02:03;9.37;68.96
65687;HTU21D;52406;45.078;38.986;2022-11-15T14:04:38;9.31;69.07
65687;HTU21D;52406;45.078;38.986;2022-11-15T14:07:16;9.23;69.00
65687;HTU21D;52406;45.078;38.986;2022-11-15T14:09:43;9.15;69.15
65687;HTU21D;52406;45.078;38.986;2022-11-15T14:12:30;9.15;69.24
65687;HTU21D;52406;45.078;38.986;2022-11-15T14:14:58;9.14;69.33
65687;HTU21D;52406;45.078;38.986;2022-11-15T14:19:57;9.01;69.35
65687;HTU21D;52406;45.078;38.986;2022-11-15T14:22:28;8.91;69.39
65687;HTU21D;52406;45.078;38.986;2022-11-15T14:28:10;8.92;69.41
65687;HTU21D;52406;45.078;38.986;2022-11-15T14:30:38;8.93;69.46
65687;HTU21D;52406;45.078;38.986;2022-11-15T14:35:48;8.98;69.42
65687;HTU21D;52406;45.078;38.986;2022-11-15T14:38:14;8.96;69.44
65687;HTU21D;52406;45.078;38.986;2022-11-15T14:40:52;8.91;69.37
65687;HTU21D;52406;45.078;38.986;2022-11-15T14:43:19;8.85;69.42
65687;HTU21D;52406;45.078;38.986;2022-11-15T14:45:45;8.78;69.47
65687;HTU21D;52406;45.078;38.986;2022-11-15T14:48:11;8.77;69.58
65687;HTU21D;52406;45.078;38.986;2022-11-15T14:50:38;8.77;69.55
65687;HTU21D;52406;45.078;38.986;2022-11-15T14:53:04;8.77;69.72
65687;HTU21D;52406;45.078;38.986;2022-11-15T14:55:33;8.82;69.68
65687;HTU21D;52406;45.078;38.986;2022-11-15T14:58:06;8.80;69.63
65687;HTU21D;52406;45.078;38.986;2022-11-15T15:00:36;8.75;69.64
65687;HTU21D;52406;45.078;38.986;2022-11-15T15:03:03;8.66;69.66
65687;HTU21D;52406;45.078;38.986;2022-11-15T15:05:34;8.60;69.72
65687;HTU21D;52406;45.078;38.986;2022-11-15T15:08:00;8.58;69.74
65687;HTU21D;52406;45.078;38.986;2022-11-15T15:10:41;8.58;69.77
65687;HTU21D;52406;45.078;38.986;2022-11-15T15:13:19;8.57;69.78
65687;HTU21D;52406;45.078;38.986;2022-11-15T15:15:46;8.53;69.81
65687;HTU21D;52406;45.078;38.986;2022-11-15T15:18:13;8.56;69.81
65687;HTU21D;52406;45.078;38.986;2022-11-15T15:20:40;8.53;69.74
65687;HTU21D;52406;45.078;38.986;2022-11-15T15:23:15;8.52;69.75
65687;HTU21D;52406;45.078;38.986;2022-11-15T15:25:42;8.61;69.92
65687;HTU21D;52406;45.078;38.986;2022-11-15T15:28:09;9.29;69.27
65687;HTU21D;52406;45.078;38.986;2022-11-15T15:30:35;9.91;68.13
65687;HTU21D;52406;45.078;38.986;2022-11-15T15:33:01;10.43;67.26
65687;HTU21D;52406;45.078;38.986;2022-11-15T15:35:30;10.90;66.50
65687;HTU21D;52406;45.078;38.986;2022-11-15T15:37:57;11.25;65.94
65687;HTU21D;52406;45.078;38.986;2022-11-15T15:40:24;11.56;65.50
65687;HTU21D;52406;45.078;38.986;2022-11-15T15:42:51;11.82;65.24
65687;HTU21D;52406;45.078;38.986;2022-11-15T16:18:36;8.67;69.52
65687;HTU21D;52406;45.078;38.986;2022-11-15T16:21:02;8.64;69.58
65687;HTU21D;52406;45.078;38.986;2022-11-15T16:23:28;8.60;69.68
65687;HTU21D;52406;45.078;38.986;2022-11-15T16:25:55;8.57;69.81
65687;HTU21D;52406;45.078;38.986;2022-11-15T16:28:39;8.63;69.90
65687;HTU21D;52406;45.078;38.986;2022-11-15T16:31:08;8.74;69.80
65687;HTU21D;52406;45.078;38.986;2022-11-15T16:33:35;8.66;69.75
65687;HTU21D;52406;45.078;38.986;2022-11-15T16:36:06;8.58;69.87
65687;HTU21D;52406;45.078;38.986;2022-11-15T16:38:38;8.42;69.78
65687;HTU21D;52406;45.078;38.986;2022-11-15T16:41:04;8.24;69.87
65687;HTU21D;52406;45.078;38.986;2022-11-15T16:43:30;8.14;70.05
65687;HTU21D;52406;45.078;38.986;2022-11-15T16:45:56;8.08;70.10
65687;HTU21D;52406;45.078;38.986;2022-11-15T16:48:24;8.21;70.10
65687;HTU21D;52406;45.078;38.986;2022-11-15T16:50:54;8.60;69.58
65687;HTU21D;52406;45.078;38.986;2022-11-15T16:53:21;8.97;68.95
65687;HTU21D;52406;45.078;38.986;2022-11-15T16:55:47;9.32;68.46
65687;HTU21D;52406;45.078;38.986;2022-11-15T16:58:13;9.59;68.11
65687;HTU21D;52406;45.078;38.986;2022-11-15T17:00:38;9.78;67.95
65687;HTU21D;52406;45.078;38.986;2022-11-15T17:03:04;9.92;67.74
65687;HTU21D;52406;45.078;38.986;2022-11-15T17:05:31;10.00;67.84
65687;HTU21D;52406;45.078;38.986;2022-11-15T17:07:57;10.11;67.84
65687;HTU21D;52406;45.078;38.986;2022-11-15T17:10:25;10.21;67.83
65687;HTU21D;52406;45.078;38.986;2022-11-15T17:12:53;10.28;67.86
65687;HTU21D;52406;45.078;38.986;2022-11-15T17:15:19;10.29;67.95
65687;HTU21D;52406;45.078;38.986;2022-11-15T17:17:51;10.24;68.09
65687;HTU21D;52406;45.078;38.986;2022-11-15T17:20:18;10.27;68.12
65687;HTU21D;52406;45.078;38.986;2022-11-15T17:22:44;10.27;68.16
65687;HTU21D;52406;45.078;38.986;2022-11-15T17:25:12;10.27;68.16
65687;HTU21D;52406;45.078;38.986;2022-11-15T17:27:38;10.27;68.26
65687;HTU21D;52406;45.078;38.986;2022-11-15T17:30:05;10.25;68.11
65687;HTU21D;52406;45.078;38.986;2022-11-15T17:32:31;9.96;68.57
65687;HTU21D;52406;45.078;38.986;2022-11-15T17:42:56;9.09;70.11
65687;HTU21D;52406;45.078;38.986;2022-11-15T17:45:22;9.02;70.31
65687;HTU21D;52406;45.078;38.986;2022-11-15T17:47:48;9.00;70.34
65687;HTU21D;52406;45.078;38.986;2022-11-15T17:50:14;8.95;70.39
65687;HTU21D;52406;45.078;38.986;2022-11-15T17:52:40;8.98;70.19
65687;HTU21D;52406;45.078;38.986;2022-11-15T17:55:07;9.05;70.05
65687;HTU21D;52406;45.078;38.986;2022-11-15T17:57:33;9.11;69.78
65687;HTU21D;52406;45.078;38.986;2022-11-15T17:59:58;9.19;69.68
65687;HTU21D;52406;45.078;38.986;2022-11-15T18:02:24;9.25;69.54
65687;HTU21D;52406;45.078;38.986;2022-11-15T18:04:51;9.21;69.58
65687;HTU21D;52406;45.078;38.986;2022-11-15T18:07:16;9.19;69.83
65687;HTU21D;52406;45.078;38.986;2022-11-15T18:09:42;9.20;70.05
65687;HTU21D;52406;45.078;38.986;2022-11-15T18:12:10;9.15;70.23
65687;HTU21D;52406;45.078;38.986;2022-11-15T18:14:39;9.01;70.42
65687;HTU21D;52406;45.078;38.986;2022-11-15T18:17:05;9.02;70.74
65687;HTU21D;52406;45.078;38.986;2022-11-15T18:19:31;9.05;70.56
65687;HTU21D;52406;45.078;38.986;2022-11-15T18:21:58;9.09;70.56
65687;HTU21D;52406;45.078;38.986;2022-11-15T18:24:33;9.06;70.51
65687;HTU21D;52406;45.078;38.986;2022-11-15T18:27:01;9.02;70.45
65687;HTU21D;52406;45.078;38.986;2022-11-15T18:29:27;9.03;70.26
65687;HTU21D;52406;45.078;38.986;2022-11-15T18:31:54;8.88;70.35
65687;HTU21D;52406;45.078;38.986;2022-11-15T18:34:29;8.56;70.30
65687;HTU21D;52406;45.078;38.986;2022-11-15T18:36:57;8.35;70.50
65687;HTU21D;52406;45.078;38.986;2022-11-15T18:39:23;8.27;70.63
65687;HTU21D;52406;45.078;38.986;2022-11-15T18:41:49;8.23;70.72
65687;HTU21D;52406;45.078;38.986;2022-11-15T18:44:16;8.23;70.64
65687;HTU21D;52406;45.078;38.986;2022-11-15T18:46:42;8.23;70.72
65687;HTU21D;52406;45.078;38.986;2022-11-15T18:49:11;8.23;70.73
65687;HTU21D;52406;45.078;38.986;2022-11-15T18:51:38;8.30;70.61
65687;HTU21D;52406;45.078;38.986;2022-11-15T18:54:10;8.26;70.54
65687;HTU21D;52406;45.078;38.986;2022-11-15T18:56:37;8.21;70.64
65687;HTU21D;52406;45.078;38.986;2022-11-15T18:59:04;8.24;70.75
65687;HTU21D;52406;45.078;38.986;2022-11-15T19:01:32;8.34;70.70
65687;HTU21D;52406;45.078;38.986;2022-11-15T19:04:09;8.39;70.63
65687;HTU21D;52406;45.078;38.986;2022-11-15T19:06:37;8.53;70.53
65687;HTU21D;52406;45.078;38.986;2022-11-15T19:09:04;8.62;70.47
65687;HTU21D;52406;45.078;38.986;2022-11-15T19:11:33;8.66;70.58
65687;HTU21D;52406;45.078;38.986;2022-11-15T19:14:05;8.67;70.61
65687;HTU21D;52406;45.078;38.986;2022-11-15T19:16:34;8.67;70.74
65687;HTU21D;52406;45.078;38.986;2022-11-15T19:19:04;8.76;70.77
65687;HTU21D;52406;45.078;38.986;2022-11-15T19:21:30;8.83;70.72
65687;HTU21D;52406;45.078;38.986;2022-11-15T19:23:57;8.90;70.65
65687;HTU21D;52406;45.078;38.986;2022-11-15T19:26:23;8.88;70.73
65687;HTU21D;52406;45.078;38.986;2022-11-15T19:28:52;8.86;70.68
65687;HTU21D;52406;45.078;38.986;2022-11-15T19:31:19;8.74;70.48
65687;HTU21D;52406;45.078;38.986;2022-11-15T19:33:46;8.47;70.54
65687;HTU21D;52406;45.078;38.986;2022-11-15T19:38:39;8.18;70.71
65687;HTU21D;52406;45.078;38.986;2022-11-15T19:41:06;7.97;70.75
65687;HTU21D;52406;45.078;38.986;2022-11-15T19:43:33;7.77;70.75
65687;HTU21D;52406;45.078;38.986;2022-11-15T19:46:01;7.63;70.86
65687;HTU21D;52406;45.078;38.986;2022-11-15T19:48:32;7.52;70.78
65687;HTU21D;52406;45.078;38.986;2022-11-15T19:51:12;7.39;70.74
65687;HTU21D;52406;45.078;38.986;2022-11-15T19:53:39;7.31;70.74
65687;HTU21D;52406;45.078;38.986;2022-11-15T19:56:08;7.20;70.68
65687;HTU21D;52406;45.078;38.986;2022-11-15T19:58:34;7.01;70.69
65687;HTU21D;52406;45.078;38.986;2022-11-15T20:03:31;6.89;70.83
65687;HTU21D;52406;45.078;38.986;2022-11-15T20:06:08;6.82;70.84
65687;HTU21D;52406;45.078;38.986;2022-11-15T20:08:35;6.81;70.90
65687;HTU21D;52406;45.078;38.986;2022-11-15T20:11:02;6.90;70.97
65687;HTU21D;52406;45.078;38.986;2022-11-15T20:13:28;6.95;70.81
65687;HTU21D;52406;45.078;38.986;2022-11-15T20:15:54;6.99;70.91
65687;HTU21D;52406;45.078;38.986;2022-11-15T20:18:21;7.00;70.84
65687;HTU21D;52406;45.078;38.986;2022-11-15T20:20:48;6.96;70.76
65687;HTU21D;52406;45.078;38.986;2022-11-15T20:23:14;6.87;70.72
65687;HTU21D;52406;45.078;38.986;2022-11-15T20:25:47;6.81;70.81
65687;HTU21D;52406;45.078;38.986;2022-11-15T20:28:24;6.74;70.80
65687;HTU21D;52406;45.078;38.986;2022-11-15T20:30:53;6.72;71.04
65687;HTU21D;52406;45.078;38.986;2022-11-15T20:33:19;6.78;71.15
65687;HTU21D;52406;45.078;38.986;2022-11-15T20:35:45;6.88;71.16
65687;HTU21D;52406;45.078;38.986;2022-11-15T20:38:11;6.99;71.06
65687;HTU21D;52406;45.078;38.986;2022-11-15T20:40:38;6.96;70.95
65687;HTU21D;52406;45.078;38.986;2022-11-15T20:43:05;6.88;70.97
65687;HTU21D;52406;45.078;38.986;2022-11-15T20:45:31;6.79;71.03
65687;HTU21D;52406;45.078;38.986;2022-11-15T20:47:57;6.71;71.07
65687;HTU21D;52406;45.078;38.986;2022-11-15T20:50:25;6.72;71.03
65687;HTU21D;52406;45.078;38.986;2022-11-15T20:52:52;6.66;70.99
65687;HTU21D;52406;45.078;38.986;2022-11-15T20:55:20;6.58;71.05
65687;HTU21D;52406;45.078;38.986;2022-11-15T20:57:46;6.51;71.06
65687;HTU21D;52406;45.078;38.986;2022-11-15T21:00:13;6.45;71.05
65687;HTU21D;52406;45.078;38.986;2022-11-15T21:02:39;6.33;70.97
65687;HTU21D;52406;45.078;38.986;2022-11-15T21:05:06;6.20;71.05
65687;HTU21D;52406;45.078;38.986;2022-11-15T21:07:32;6.12;71.20
65687;HTU21D;52406;45.078;38.986;2022-11-15T21:09:58;6.10;71.19
65687;HTU21D;52406;45.078;38.986;2022-11-15T21:12:42;6.10;71.21
65687;HTU21D;52406;45.078;38.986;2022-11-15T21:15:08;6.11;71.19
65687;HTU21D;52406;45.078;38.986;2022-11-15T21:17:34;6.05;71.11
65687;HTU21D;52406;45.078;38.986;2022-11-15T21:20:00;5.98;71.08
65687;HTU21D;52406;45.078;38.986;2022-11-15T21:22:26;5.91;71.13
65687;HTU21D;52406;45.078;38.986;2022-11-15T21:24:52;5.86;71.13
65687;HTU21D;52406;45.078;38.986;2022-11-15T21:27:18;5.83;71.21
65687;HTU21D;52406;45.078;38.986;2022-11-15T21:29:45;5.79;71.20
65687;HTU21D;52406;45.078;38.986;2022-11-15T21:32:15;5.78;71.28
65687;HTU21D;52406;45.078;38.986;2022-11-15T21:34:41;5.80;71.26
65687;HTU21D;52406;45.078;38.986;2022-11-15T21:37:07;5.74;71.20
65687;HTU21D;52406;45.078;38.986;2022-11-15T21:39:35;5.69;71.21
65687;HTU21D;52406;45.078;38.986;2022-11-15T21:42:01;5.60;71.22
65687;HTU21D;52406;45.078;38.986;2022-11-15T21:44:28;5.50;71.31
65687;HTU21D;52406;45.078;38.986;2022-11-15T21:46:54;5.54;71.38
65687;HTU21D;52406;45.078;38.986;2022-11-15T21:49:20;5.54;71.35
65687;HTU21D;52406;45.078;38.986;2022-11-15T21:51:47;5.54;71.46
65687;HTU21D;52406;45.078;38.986;2022-11-15T21:54:14;5.54;71.42
65687;HTU21D;52406;45.078;38.986;2022-11-15T21:56:40;5.51;71.41
65687;HTU21D;52406;45.078;38.986;2022-11-15T21:59:07;5.42;71.41
65687;HTU21D;52406;45.078;38.986;2022-11-15T22:01:33;5.32;71.41
65687;HTU21D;52406;45.078;38.986;2022-11-15T22:33:32;5.15;71.47
65687;HTU21D;52406;45.078;38.986;2022-11-15T22:35:59;5.06;71.43
65687;HTU21D;52406;45.078;38.986;2022-11-15T22:38:26;4.93;71.51
65687;HTU21D;52406;45.078;38.986;2022-11-15T22:40:52;4.82;71.63
65687;HTU21D;52406;45.078;38.986;2022-11-15T22:43:20;4.78;71.69
65687;HTU21D;52406;45.078;38.986;2022-11-15T22:45:52;4.77;71.71
65687;HTU21D;52406;45.078;38.986;2022-11-15T22:48:20;4.75;71.80
65687;HTU21D;52406;45.078;38.986;2022-11-15T22:50:47;4.77;71.81
65687;HTU21D;52406;45.078;38.986;2022-11-15T22:53:13;4.71;71.75
65687;HTU21D;52406;45.078;38.986;2022-11-15T22:55:42;4.64;71.77
65687;HTU21D;52406;45.078;38.986;2022-11-15T22:58:08;4.59;71.77
65687;HTU21D;52406;45.078;38.986;2022-11-15T23:00:35;4.56;71.77
65687;HTU21D;52406;45.078;38.986;2022-11-15T23:03:01;4.56;71.85
65687;HTU21D;52406;45.078;38.986;2022-11-15T23:05:27;4.62;71.82
65687;HTU21D;52406;45.078;38.986;2022-11-15T23:07:54;4.65;71.89
65687;HTU21D;52406;45.078;38.986;2022-11-15T23:10:20;4.73;71.81
65687;HTU21D;52406;45.078;38.986;2022-11-15T23:13:07;4.75;71.80
65687;HTU21D;52406;45.078;38.986;2022-11-15T23:15:41;4.74;71.78
65687;HTU21D;52406;45.078;38.986;2022-11-15T23:18:25;4.72;71.88
65687;HTU21D;52406;45.078;38.986;2022-11-15T23:20:54;4.76;71.87
65687;HTU21D;52406;45.078;38.986;2022-11-15T23:23:20;4.82;71.84
65687;HTU21D;52406;45.078;38.986;2022-11-15T23:25:46;4.90;71.85
65687;HTU21D;52406;45.078;38.986;2022-11-15T23:28:12;4.93;71.83
65687;HTU21D;52406;45.078;38.986;2022-11-15T23:30:38;4.90;71.81
65687;HTU21D;52406;45.078;38.986;2022-11-15T23:33:23;4.82;71.83
65687;HTU21D;52406;45.078;38.986;2022-11-15T23:36:07;4.74;71.77
65687;HTU21D;52406;45.078;38.986;2022-11-15T23:38:36;4.63;71.78
65687;HTU21D;52406;45.078;38.986;2022-11-15T23:41:04;4.57;71.90
65687;HTU21D;52406;45.078;38.986;2022-11-15T23:43:31;4.53;71.96
65687;HTU21D;52406;45.078;38.986;2022-11-15T23:45:59;4.53;71.96
